sensor_id;sensor_type;location;lat;lon;timestamp;pressure;altitude;pressure_sealevel;temperature
15144;BMP180;7672;50.834;6.286;2023-04-04T00:00:46;100902.69;;;6.18
15144;BMP180;7672;50.834;6.286;2023-04-04T00:03:13;100895.84;;;6.14
15144;BMP180;7672;50.834;6.286;2023-04-04T00:05:39;100907.44;;;6.12
15144;BMP180;7672;50.834;6.286;2023-04-04T00:08:07;100900.66;;;6.10
15144;BMP180;7672;50.834;6.286;2023-04-04T00:10:33;100901.38;;;6.07
15144;BMP180;7672;50.834;6.286;2023-04-04T00:13:01;100906.34;;;6.06
15144;BMP180;7672;50.834;6.286;2023-04-04T00:15:28;100893.66;;;6.03
15144;BMP180;7672;50.834;6.286;2023-04-04T00:17:55;100901.06;;;6.00
15144;BMP180;7672;50.834;6.286;2023-04-04T00:20:22;100900.94;;;5.97
15144;BMP180;7672;50.834;6.286;2023-04-04T00:22:49;100896.66;;;5.94
15144;BMP180;7672;50.834;6.286;2023-04-04T00:25:16;100898.25;;;5.92
15144;BMP180;7672;50.834;6.286;2023-04-04T00:27:43;100889.81;;;5.90
15144;BMP180;7672;50.834;6.286;2023-04-04T00:30:10;100897.19;;;5.87
15144;BMP180;7672;50.834;6.286;2023-04-04T00:32:37;100892.13;;;5.86
15144;BMP180;7672;50.834;6.286;2023-04-04T00:35:05;100888.63;;;5.82
15144;BMP180;7672;50.834;6.286;2023-04-04T00:37:32;100895.19;;;5.79
15144;BMP180;7672;50.834;6.286;2023-04-04T00:39:59;100889.19;;;5.75
15144;BMP180;7672;50.834;6.286;2023-04-04T00:42:26;100883.19;;;5.73
15144;BMP180;7672;50.834;6.286;2023-04-04T00:44:53;100890.66;;;5.72
15144;BMP180;7672;50.834;6.286;2023-04-04T00:47:24;100896.47;;;5.71
15144;BMP180;7672;50.834;6.286;2023-04-04T00:49:55;100892.19;;;5.68
15144;BMP180;7672;50.834;6.286;2023-04-04T00:52:22;100895.50;;;5.67
15144;BMP180;7672;50.834;6.286;2023-04-04T00:54:49;100894.63;;;5.67
15144;BMP180;7672;50.834;6.286;2023-04-04T00:57:16;100887.03;;;5.65
15144;BMP180;7672;50.834;6.286;2023-04-04T00:59:45;100888.59;;;5.63
15144;BMP180;7672;50.834;6.286;2023-04-04T01:02:12;100890.22;;;5.61
15144;BMP180;7672;50.834;6.286;2023-04-04T01:04:38;100896.03;;;5.60
15144;BMP180;7672;50.834;6.286;2023-04-04T01:07:05;100895.97;;;5.59
15144;BMP180;7672;50.834;6.286;2023-04-04T01:09:32;100911.75;;;5.56
15144;BMP180;7672;50.834;6.286;2023-04-04T01:12:00;100897.28;;;5.51
15144;BMP180;7672;50.834;6.286;2023-04-04T01:14:28;100897.16;;;5.48
15144;BMP180;7672;50.834;6.286;2023-04-04T01:16:54;100902.88;;;5.46
15144;BMP180;7672;50.834;6.286;2023-04-04T01:19:29;100901.03;;;5.42
15144;BMP180;7672;50.834;6.286;2023-04-04T01:21:59;100906.84;;;5.41
15144;BMP180;7672;50.834;6.286;2023-04-04T01:24:33;100901.72;;;5.38
15144;BMP180;7672;50.834;6.286;2023-04-04T01:27:01;100905.78;;;5.36
15144;BMP180;7672;50.834;6.286;2023-04-04T01:29:28;100904.88;;;5.34
15144;BMP180;7672;50.834;6.286;2023-04-04T01:32:43;100908.09;;;5.31
15144;BMP180;7672;50.834;6.286;2023-04-04T01:38:13;100911.00;;;5.21
15144;BMP180;7672;50.834;6.286;2023-04-04T01:40:48;100907.59;;;5.19
15144;BMP180;7672;50.834;6.286;2023-04-04T01:43:15;100906.72;;;5.19
15144;BMP180;7672;50.834;6.286;2023-04-04T01:45:42;100905.00;;;5.18
15144;BMP180;7672;50.834;6.286;2023-04-04T01:48:10;100897.47;;;5.18
15144;BMP180;7672;50.834;6.286;2023-04-04T01:50:37;100894.91;;;5.16
15144;BMP180;7672;50.834;6.286;2023-04-04T01:53:04;100897.34;;;5.15
15144;BMP180;7672;50.834;6.286;2023-04-04T01:55:30;100899.78;;;5.13
15144;BMP180;7672;50.834;6.286;2023-04-04T01:57:57;100899.72;;;5.12
15144;BMP180;7672;50.834;6.286;2023-04-04T02:00:24;100898.00;;;5.11
15144;BMP180;7672;50.834;6.286;2023-04-04T02:02:51;100898.00;;;5.11
15144;BMP180;7672;50.834;6.286;2023-04-04T02:05:18;100901.28;;;5.10
15144;BMP180;7672;50.834;6.286;2023-04-04T02:07:48;100899.56;;;5.09
15144;BMP180;7672;50.834;6.286;2023-04-04T02:10:17;100893.66;;;5.07
15144;BMP180;7672;50.834;6.286;2023-04-04T02:12:44;100894.38;;;5.04
15144;BMP180;7672;50.834;6.286;2023-04-04T02:15:11;100894.31;;;5.03
15144;BMP180;7672;50.834;6.286;2023-04-04T02:17:38;100888.44;;;5.02
15144;BMP180;7672;50.834;6.286;2023-04-04T02:20:06;100877.41;;;4.99
15144;BMP180;7672;50.834;6.286;2023-04-04T02:22:33;100880.72;;;4.98
15144;BMP180;7672;50.834;6.286;2023-04-04T02:25:00;100885.63;;;4.96
15144;BMP180;7672;50.834;6.286;2023-04-04T02:27:28;100883.88;;;4.94
15144;BMP180;7672;50.834;6.286;2023-04-04T02:29:55;100878.78;;;4.92
15144;BMP180;7672;50.834;6.286;2023-04-04T02:32:22;100876.16;;;4.89
15144;BMP180;7672;50.834;6.286;2023-04-04T02:34:49;100875.16;;;4.86
15144;BMP180;7672;50.834;6.286;2023-04-04T02:37:17;100878.44;;;4.85
15144;BMP180;7672;50.834;6.286;2023-04-04T02:39:44;100872.53;;;4.83
15144;BMP180;7672;50.834;6.286;2023-04-04T02:42:11;100873.38;;;4.84
15144;BMP180;7672;50.834;6.286;2023-04-04T02:44:37;100869.00;;;4.80
15144;BMP180;7672;50.834;6.286;2023-04-04T02:47:05;100868.09;;;4.78
15144;BMP180;7672;50.834;6.286;2023-04-04T02:49:33;100863.00;;;4.76
15144;BMP180;7672;50.834;6.286;2023-04-04T02:51:59;100855.28;;;4.72
15144;BMP180;7672;50.834;6.286;2023-04-04T02:54:26;100851.00;;;4.69
15144;BMP180;7672;50.834;6.286;2023-04-04T02:56:53;100847.50;;;4.66
15144;BMP180;7672;50.834;6.286;2023-04-04T02:59:20;100854.09;;;4.64
15144;BMP180;7672;50.834;6.286;2023-04-04T03:01:47;100852.38;;;4.63
15144;BMP180;7672;50.834;6.286;2023-04-04T03:04:14;100854.81;;;4.61
15144;BMP180;7672;50.834;6.286;2023-04-04T03:06:40;100855.59;;;4.60
15144;BMP180;7672;50.834;6.286;2023-04-04T03:09:07;100853.03;;;4.59
15144;BMP180;7672;50.834;6.286;2023-04-04T03:11:34;100853.81;;;4.58
15144;BMP180;7672;50.834;6.286;2023-04-04T03:14:01;100852.03;;;4.55
15144;BMP180;7672;50.834;6.286;2023-04-04T03:16:28;100858.75;;;4.56
15144;BMP180;7672;50.834;6.286;2023-04-04T03:18:55;100862.88;;;4.56
15144;BMP180;7672;50.834;6.286;2023-04-04T03:21:22;100856.16;;;4.55
15144;BMP180;7672;50.834;6.286;2023-04-04T03:23:49;100861.16;;;4.55
15144;BMP180;7672;50.834;6.286;2023-04-04T03:26:16;100866.28;;;4.56
15144;BMP180;7672;50.834;6.286;2023-04-04T03:28:43;100864.47;;;4.54
15144;BMP180;7672;50.834;6.286;2023-04-04T03:31:10;100870.34;;;4.54
15144;BMP180;7672;50.834;6.286;2023-04-04T03:33:37;100867.75;;;4.53
15144;BMP180;7672;50.834;6.286;2023-04-04T03:36:11;100865.25;;;4.53
15144;BMP180;7672;50.834;6.286;2023-04-04T03:38:39;100871.06;;;4.52
15144;BMP180;7672;50.834;6.286;2023-04-04T03:41:07;100865.91;;;4.49
15144;BMP180;7672;50.834;6.286;2023-04-04T03:43:33;100870.91;;;4.49
15144;BMP180;7672;50.834;6.286;2023-04-04T03:46:02;100870.84;;;4.47
15144;BMP180;7672;50.834;6.286;2023-04-04T03:48:29;100871.69;;;4.48
15144;BMP180;7672;50.834;6.286;2023-04-04T03:50:56;100861.63;;;4.46
15144;BMP180;7672;50.834;6.286;2023-04-04T03:53:24;100864.06;;;4.45
15144;BMP180;7672;50.834;6.286;2023-04-04T03:55:54;100868.19;;;4.44
15144;BMP180;7672;50.834;6.286;2023-04-04T03:58:22;100868.19;;;4.44
15144;BMP180;7672;50.834;6.286;2023-04-04T04:00:49;100873.19;;;4.44
15144;BMP180;7672;50.834;6.286;2023-04-04T04:03:16;100868.19;;;4.44
15144;BMP180;7672;50.834;6.286;2023-04-04T04:05:43;100868.19;;;4.44
15144;BMP180;7672;50.834;6.286;2023-04-04T04:08:10;100869.06;;;4.45
15144;BMP180;7672;50.834;6.286;2023-04-04T04:10:37;100868.13;;;4.43
15144;BMP180;7672;50.834;6.286;2023-04-04T04:13:04;100869.91;;;4.45
15144;BMP180;7672;50.834;6.286;2023-04-04T04:15:31;100876.59;;;4.45
15144;BMP180;7672;50.834;6.286;2023-04-04T04:17:57;100868.19;;;4.44
15144;BMP180;7672;50.834;6.286;2023-04-04T04:20:24;100865.69;;;4.44
15144;BMP180;7672;50.834;6.286;2023-04-04T04:22:51;100858.97;;;4.43
15144;BMP180;7672;50.834;6.286;2023-04-04T04:25:20;100869.06;;;4.45
15144;BMP180;7672;50.834;6.286;2023-04-04T04:27:46;100859.91;;;4.45
15144;BMP180;7672;50.834;6.286;2023-04-04T04:30:13;100859.06;;;4.45
15144;BMP180;7672;50.834;6.286;2023-04-04T04:32:40;100853.88;;;4.42
15144;BMP180;7672;50.834;6.286;2023-04-04T04:35:07;100852.25;;;4.42
15144;BMP180;7672;50.834;6.286;2023-04-04T04:37:35;100857.25;;;4.42
15144;BMP180;7672;50.834;6.286;2023-04-04T04:40:02;100857.19;;;4.41
15144;BMP180;7672;50.834;6.286;2023-04-04T04:42:29;100855.53;;;4.41
15144;BMP180;7672;50.834;6.286;2023-04-04T04:44:56;100856.31;;;4.40
15144;BMP180;7672;50.834;6.286;2023-04-04T04:47:22;100856.31;;;4.40
15144;BMP180;7672;50.834;6.286;2023-04-04T04:49:49;100848.75;;;4.39
15144;BMP180;7672;50.834;6.286;2023-04-04T04:52:16;100847.09;;;4.39
15144;BMP180;7672;50.834;6.286;2023-04-04T04:54:44;100851.19;;;4.37
15144;BMP180;7672;50.834;6.286;2023-04-04T04:57:11;100850.31;;;4.37
15144;BMP180;7672;50.834;6.286;2023-04-04T04:59:41;100846.84;;;4.33
15144;BMP180;7672;50.834;6.286;2023-04-04T05:02:08;100847.53;;;4.31
15144;BMP180;7672;50.834;6.286;2023-04-04T05:04:35;100855.78;;;4.28
15144;BMP180;7672;50.834;6.286;2023-04-04T05:07:01;100858.28;;;4.28
15144;BMP180;7672;50.834;6.286;2023-04-04T05:09:28;100863.28;;;4.28
15144;BMP180;7672;50.834;6.286;2023-04-04T05:11:55;100859.06;;;4.28
15144;BMP180;7672;50.834;6.286;2023-04-04T05:14:22;100871.63;;;4.29
15144;BMP180;7672;50.834;6.286;2023-04-04T05:16:49;100867.41;;;4.28
15144;BMP180;7672;50.834;6.286;2023-04-04T05:19:16;100862.41;;;4.28
15144;BMP180;7672;50.834;6.286;2023-04-04T05:21:43;100860.78;;;4.28
15144;BMP180;7672;50.834;6.286;2023-04-04T05:24:10;100865.78;;;4.28
15144;BMP180;7672;50.834;6.286;2023-04-04T05:26:38;100865.78;;;4.28
15144;BMP180;7672;50.834;6.286;2023-04-04T05:29:04;100871.69;;;4.30
15144;BMP180;7672;50.834;6.286;2023-04-04T05:31:31;100872.78;;;4.35
15144;BMP180;7672;50.834;6.286;2023-04-04T05:33:59;100872.28;;;4.42
15144;BMP180;7672;50.834;6.286;2023-04-04T05:36:31;100870.22;;;4.51
15144;BMP180;7672;50.834;6.286;2023-04-04T05:38:57;100878.19;;;4.62
15144;BMP180;7672;50.834;6.286;2023-04-04T05:41:24;100879.69;;;4.76
15144;BMP180;7672;50.834;6.286;2023-04-04T05:43:51;100879.50;;;4.90
15144;BMP180;7672;50.834;6.286;2023-04-04T05:46:18;100880.19;;;5.05
15144;BMP180;7672;50.834;6.286;2023-04-04T05:48:44;100883.44;;;5.21
15144;BMP180;7672;50.834;6.286;2023-04-04T05:51:11;100884.16;;;5.38
15144;BMP180;7672;50.834;6.286;2023-04-04T05:53:48;100883.38;;;5.57
15144;BMP180;7672;50.834;6.286;2023-04-04T05:56:15;100885.88;;;5.76
15144;BMP180;7672;50.834;6.286;2023-04-04T05:58:42;100888.34;;;5.95
15144;BMP180;7672;50.834;6.286;2023-04-04T06:01:10;100887.47;;;6.15
15144;BMP180;7672;50.834;6.286;2023-04-04T06:03:38;100898.50;;;6.39
15144;BMP180;7672;50.834;6.286;2023-04-04T06:06:06;100897.66;;;6.60
15144;BMP180;7672;50.834;6.286;2023-04-04T06:08:34;100895.16;;;6.82
15144;BMP180;7672;50.834;6.286;2023-04-04T06:11:19;100896.13;;;7.07
15144;BMP180;7672;50.834;6.286;2023-04-04T06:13:49;100897.81;;;7.30
15144;BMP180;7672;50.834;6.286;2023-04-04T06:16:18;100904.56;;;7.54
15144;BMP180;7672;50.834;6.286;2023-04-04T06:18:46;100902.03;;;7.78
15144;BMP180;7672;50.834;6.286;2023-04-04T06:21:14;100905.31;;;8.00
15144;BMP180;7672;50.834;6.286;2023-04-04T06:23:41;100899.34;;;8.21
15144;BMP180;7672;50.834;6.286;2023-04-04T06:26:08;100899.22;;;8.43
15144;BMP180;7672;50.834;6.286;2023-04-04T06:28:36;100900.69;;;8.63
15144;BMP180;7672;50.834;6.286;2023-04-04T06:31:07;100904.78;;;8.87
15144;BMP180;7672;50.834;6.286;2023-04-04T06:33:35;100902.16;;;9.12
15144;BMP180;7672;50.834;6.286;2023-04-04T06:36:02;100895.38;;;9.39
15144;BMP180;7672;50.834;6.286;2023-04-04T06:38:36;100911.44;;;9.72
15144;BMP180;7672;50.834;6.286;2023-04-04T06:41:06;100902.13;;;10.01
15144;BMP180;7672;50.834;6.286;2023-04-04T06:43:34;100893.66;;;10.33
15144;BMP180;7672;50.834;6.286;2023-04-04T06:46:01;100897.09;;;10.72
15144;BMP180;7672;50.834;6.286;2023-04-04T06:48:29;100899.88;;;11.22
15144;BMP180;7672;50.834;6.286;2023-04-04T06:50:57;100910.31;;;11.79
15144;BMP180;7672;50.834;6.286;2023-04-04T06:53:24;100905.47;;;12.41
15144;BMP180;7672;50.834;6.286;2023-04-04T06:55:52;100906.31;;;12.95
15144;BMP180;7672;50.834;6.286;2023-04-04T06:58:24;100905.19;;;13.42
15144;BMP180;7672;50.834;6.286;2023-04-04T07:00:52;100903.19;;;13.92
15144;BMP180;7672;50.834;6.286;2023-04-04T07:03:19;100913.00;;;14.45
15144;BMP180;7672;50.834;6.286;2023-04-04T07:05:47;100914.22;;;14.96
15144;BMP180;7672;50.834;6.286;2023-04-04T07:08:14;100914.50;;;15.54
15144;BMP180;7672;50.834;6.286;2023-04-04T07:10:42;100913.75;;;16.09
15144;BMP180;7672;50.834;6.286;2023-04-04T07:13:10;100914.63;;;16.66
15144;BMP180;7672;50.834;6.286;2023-04-04T07:15:37;100917.91;;;17.20
15144;BMP180;7672;50.834;6.286;2023-04-04T07:18:05;100922.81;;;17.72
15144;BMP180;7672;50.834;6.286;2023-04-04T07:20:33;100913.97;;;18.22
15144;BMP180;7672;50.834;6.286;2023-04-04T07:23:01;100910.97;;;18.73
15144;BMP180;7672;50.834;6.286;2023-04-04T07:25:34;100912.16;;;19.22
15144;BMP180;7672;50.834;6.286;2023-04-04T07:28:01;100912.38;;;19.70
15144;BMP180;7672;50.834;6.286;2023-04-04T07:30:39;100911.81;;;20.10
15144;BMP180;7672;50.834;6.286;2023-04-04T07:33:14;100911.13;;;20.51
15144;BMP180;7672;50.834;6.286;2023-04-04T07:35:41;100912.94;;;20.96
15144;BMP180;7672;50.834;6.286;2023-04-04T07:38:09;100902.75;;;21.32
15144;BMP180;7672;50.834;6.286;2023-04-04T07:40:36;100899.41;;;21.70
15144;BMP180;7672;50.834;6.286;2023-04-04T07:43:04;100901.09;;;22.07
15144;BMP180;7672;50.834;6.286;2023-04-04T07:45:32;100895.25;;;22.37
15144;BMP180;7672;50.834;6.286;2023-04-04T07:48:02;100894.06;;;22.49
15144;BMP180;7672;50.834;6.286;2023-04-04T07:50:30;100890.47;;;22.55
15144;BMP180;7672;50.834;6.286;2023-04-04T07:53:09;100892.31;;;22.82
15144;BMP180;7672;50.834;6.286;2023-04-04T07:55:36;100891.84;;;23.00
15144;BMP180;7672;50.834;6.286;2023-04-04T07:58:03;100891.47;;;23.13
15144;BMP180;7672;50.834;6.286;2023-04-04T08:00:30;100886.88;;;23.24
15144;BMP180;7672;50.834;6.286;2023-04-04T08:02:57;100882.28;;;23.33
15144;BMP180;7672;50.834;6.286;2023-04-04T08:05:25;100879.78;;;23.30
15144;BMP180;7672;50.834;6.286;2023-04-04T08:07:52;100885.13;;;23.24
15144;BMP180;7672;50.834;6.286;2023-04-04T08:10:19;100884.88;;;23.03
15144;BMP180;7672;50.834;6.286;2023-04-04T08:12:47;100882.72;;;22.87
15144;BMP180;7672;50.834;6.286;2023-04-04T08:15:15;100886.66;;;22.69
15144;BMP180;7672;50.834;6.286;2023-04-04T08:17:45;100887.16;;;22.50
15144;BMP180;7672;50.834;6.286;2023-04-04T08:20:13;100891.16;;;22.28
15144;BMP180;7672;50.834;6.286;2023-04-04T08:22:45;100883.19;;;22.02
15144;BMP180;7672;50.834;6.286;2023-04-04T08:25:11;100888.81;;;21.81
15144;BMP180;7672;50.834;6.286;2023-04-04T08:27:39;100896.09;;;21.65
15144;BMP180;7672;50.834;6.286;2023-04-04T08:30:07;100891.22;;;21.50
15144;BMP180;7672;50.834;6.286;2023-04-04T08:32:34;100886.31;;;21.39
15144;BMP180;7672;50.834;6.286;2023-04-04T08:35:02;100888.78;;;21.44
15144;BMP180;7672;50.834;6.286;2023-04-04T08:37:29;100881.94;;;21.44
15144;BMP180;7672;50.834;6.286;2023-04-04T08:39:56;100877.75;;;21.39
15144;BMP180;7672;50.834;6.286;2023-04-04T08:42:27;100877.97;;;21.28
15144;BMP180;7672;50.834;6.286;2023-04-04T08:44:59;100875.63;;;21.18
15144;BMP180;7672;50.834;6.286;2023-04-04T08:47:31;100883.56;;;21.06
15144;BMP180;7672;50.834;6.286;2023-04-04T08:50:03;100882.78;;;21.04
15144;BMP180;7672;50.834;6.286;2023-04-04T08:52:35;100873.09;;;21.15
15144;BMP180;7672;50.834;6.286;2023-04-04T08:55:12;100884.69;;;21.34
15144;BMP180;7672;50.834;6.286;2023-04-04T08:57:41;100889.41;;;21.56
15144;BMP180;7672;50.834;6.286;2023-04-04T09:00:23;100887.50;;;21.64
15144;BMP180;7672;50.834;6.286;2023-04-04T09:03:05;100884.88;;;21.67
15144;BMP180;7672;50.834;6.286;2023-04-04T09:05:36;100886.59;;;21.67
15144;BMP180;7672;50.834;6.286;2023-04-04T09:08:04;100889.16;;;21.67
15144;BMP180;7672;50.834;6.286;2023-04-04T09:10:34;100887.09;;;21.82
15144;BMP180;7672;50.834;6.286;2023-04-04T09:13:06;100885.81;;;21.99
15144;BMP180;7672;50.834;6.286;2023-04-04T09:15:52;100885.31;;;22.20
15144;BMP180;7672;50.834;6.286;2023-04-04T09:18:23;100882.75;;;22.20
15144;BMP180;7672;50.834;6.286;2023-04-04T09:20:50;100879.22;;;22.24
15144;BMP180;7672;50.834;6.286;2023-04-04T09:23:19;100884.38;;;22.24
15144;BMP180;7672;50.834;6.286;2023-04-04T09:25:50;100879.16;;;22.27
15144;BMP180;7672;50.834;6.286;2023-04-04T09:28:22;100887.53;;;22.37
15144;BMP180;7672;50.834;6.286;2023-04-04T09:30:51;100880.25;;;22.52
15144;BMP180;7672;50.834;6.286;2023-04-04T09:33:20;100882.44;;;22.65
15144;BMP180;7672;50.834;6.286;2023-04-04T09:36:05;100873.06;;;22.63
15144;BMP180;7672;50.834;6.286;2023-04-04T09:38:38;100878.31;;;22.60
15144;BMP180;7672;50.834;6.286;2023-04-04T09:41:07;100874.72;;;22.65
15144;BMP180;7672;50.834;6.286;2023-04-04T09:43:35;100874.16;;;22.86
15144;BMP180;7672;50.834;6.286;2023-04-04T09:46:05;100873.47;;;23.11
15144;BMP180;7672;50.834;6.286;2023-04-04T09:48:34;100871.94;;;23.33
15144;BMP180;7672;50.834;6.286;2023-04-04T09:51:11;100881.28;;;23.39
15144;BMP180;7672;50.834;6.286;2023-04-04T09:53:38;100872.31;;;23.21
15144;BMP180;7672;50.834;6.286;2023-04-04T09:56:08;100873.78;;;23.00
15144;BMP180;7672;50.834;6.286;2023-04-04T09:58:37;100873.22;;;22.89
15144;BMP180;7672;50.834;6.286;2023-04-04T10:01:17;100873.53;;;22.77
15144;BMP180;7672;50.834;6.286;2023-04-04T10:03:54;100870.72;;;22.54
15144;BMP180;7672;50.834;6.286;2023-04-04T10:06:24;100875.34;;;22.43
15144;BMP180;7672;50.834;6.286;2023-04-04T10:08:52;100871.78;;;22.47
15144;BMP180;7672;50.834;6.286;2023-04-04T10:11:32;100871.34;;;22.32
15144;BMP180;7672;50.834;6.286;2023-04-04T10:14:01;100870.16;;;22.08
15144;BMP180;7672;50.834;6.286;2023-04-04T10:16:33;100862.59;;;22.01
15144;BMP180;7672;50.834;6.286;2023-04-04T10:19:05;100864.94;;;22.11
15144;BMP180;7672;50.834;6.286;2023-04-04T10:21:34;100867.53;;;22.11
15144;BMP180;7672;50.834;6.286;2023-04-04T10:24:03;100861.84;;;21.97
15144;BMP180;7672;50.834;6.286;2023-04-04T10:26:36;100854.50;;;21.82
15144;BMP180;7672;50.834;6.286;2023-04-04T10:29:03;100854.78;;;21.69
15144;BMP180;7672;50.834;6.286;2023-04-04T10:31:37;100859.41;;;21.55
15144;BMP180;7672;50.834;6.286;2023-04-04T10:37:31;100855.53;;;21.35
15144;BMP180;7672;50.834;6.286;2023-04-04T10:40:14;100853.84;;;21.34
15144;BMP180;7672;50.834;6.286;2023-04-04T10:42:45;100850.47;;;21.32
15144;BMP180;7672;50.834;6.286;2023-04-04T10:45:22;100852.38;;;21.24
15144;BMP180;7672;50.834;6.286;2023-04-04T10:47:53;100845.75;;;21.11
15144;BMP180;7672;50.834;6.286;2023-04-04T10:50:21;100849.56;;;20.92
15144;BMP180;7672;50.834;6.286;2023-04-04T10:52:49;100849.81;;;20.80
15144;BMP180;7672;50.834;6.286;2023-04-04T10:55:18;100840.53;;;20.73
15144;BMP180;7672;50.834;6.286;2023-04-04T10:57:48;100831.19;;;20.68
15144;BMP180;7672;50.834;6.286;2023-04-04T11:00:19;100827.97;;;20.58
15144;BMP180;7672;50.834;6.286;2023-04-04T11:02:55;100832.56;;;20.40
15144;BMP180;7672;50.834;6.286;2023-04-04T11:08:03;100821.44;;;19.91
15144;BMP180;7672;50.834;6.286;2023-04-04T11:10:45;100823.22;;;19.85
15144;BMP180;7672;50.834;6.286;2023-04-04T11:16:03;100812.28;;;19.74
15144;BMP180;7672;50.834;6.286;2023-04-04T11:21:20;100804.00;;;19.57
15144;BMP180;7672;50.834;6.286;2023-04-04T11:29:20;100801.63;;;19.44
15144;BMP180;7672;50.834;6.286;2023-04-04T11:31:48;100804.16;;;19.45
15144;BMP180;7672;50.834;6.286;2023-04-04T11:34:31;100797.53;;;19.32
15144;BMP180;7672;50.834;6.286;2023-04-04T11:37:14;100792.53;;;19.23
15144;BMP180;7672;50.834;6.286;2023-04-04T11:39:47;100798.47;;;19.24
15144;BMP180;7672;50.834;6.286;2023-04-04T11:42:19;100807.88;;;19.25
15144;BMP180;7672;50.834;6.286;2023-04-04T11:47:25;100790.38;;;18.89
15144;BMP180;7672;50.834;6.286;2023-04-04T11:49:55;100801.63;;;18.75
15144;BMP180;7672;50.834;6.286;2023-04-04T11:52:22;100791.50;;;18.66
15144;BMP180;7672;50.834;6.286;2023-04-04T11:54:51;100792.53;;;18.52
15144;BMP180;7672;50.834;6.286;2023-04-04T11:57:22;100786.78;;;18.30
15144;BMP180;7672;50.834;6.286;2023-04-04T11:59:56;100790.38;;;18.08
15144;BMP180;7672;50.834;6.286;2023-04-04T12:02:31;100782.03;;;17.87
15144;BMP180;7672;50.834;6.286;2023-04-04T12:05:03;100766.91;;;17.62
15144;BMP180;7672;50.834;6.286;2023-04-04T12:07:31;100777.31;;;17.36
15144;BMP180;7672;50.834;6.286;2023-04-04T12:09:59;100777.44;;;17.05
15144;BMP180;7672;50.834;6.286;2023-04-04T12:12:39;100773.31;;;16.77
15144;BMP180;7672;50.834;6.286;2023-04-04T12:15:08;100773.44;;;16.49
15144;BMP180;7672;50.834;6.286;2023-04-04T12:17:44;100773.47;;;16.25
15144;BMP180;7672;50.834;6.286;2023-04-04T12:20:15;100776.03;;;16.03
15144;BMP180;7672;50.834;6.286;2023-04-04T12:22:47;100768.41;;;15.84
15144;BMP180;7672;50.834;6.286;2023-04-04T12:25:17;100762.47;;;15.77
15144;BMP180;7672;50.834;6.286;2023-04-04T12:27:48;100759.06;;;15.69
15144;BMP180;7672;50.834;6.286;2023-04-04T12:30:31;100751.41;;;15.56
15144;BMP180;7672;50.834;6.286;2023-04-04T12:33:10;100763.28;;;15.45
15144;BMP180;7672;50.834;6.286;2023-04-04T12:36:23;100763.25;;;15.26
15144;BMP180;7672;50.834;6.286;2023-04-04T12:39:09;100755.53;;;15.11
15144;BMP180;7672;50.834;6.286;2023-04-04T12:42:01;100745.31;;;14.94
15144;BMP180;7672;50.834;6.286;2023-04-04T12:44:32;100752.13;;;14.91
15144;BMP180;7672;50.834;6.286;2023-04-04T12:47:04;100747.84;;;14.82
15144;BMP180;7672;50.834;6.286;2023-04-04T12:50:00;100747.81;;;14.74
15144;BMP180;7672;50.834;6.286;2023-04-04T12:52:39;100743.53;;;14.71
15144;BMP180;7672;50.834;6.286;2023-04-04T12:56:15;100747.81;;;14.75
15144;BMP180;7672;50.834;6.286;2023-04-04T13:10:11;100715.63;;;14.93
15144;BMP180;7672;50.834;6.286;2023-04-04T13:17:06;100708.81;;;14.83
15144;BMP180;7672;50.834;6.286;2023-04-04T13:19:36;100701.19;;;14.85
15144;BMP180;7672;50.834;6.286;2023-04-04T13:22:07;100714.78;;;14.90
15144;BMP180;7672;50.834;6.286;2023-04-04T13:24:35;100707.13;;;14.88
15144;BMP180;7672;50.834;6.286;2023-04-04T13:27:05;100705.41;;;14.84
15144;BMP180;7672;50.834;6.286;2023-04-04T13:29:32;100702.00;;;14.84
15144;BMP180;7672;50.834;6.286;2023-04-04T13:31:59;100691.84;;;14.88
15144;BMP180;7672;50.834;6.286;2023-04-04T13:34:27;100682.53;;;14.95
15144;BMP180;7672;50.834;6.286;2023-04-04T13:36:55;100691.88;;;15.02
15144;BMP180;7672;50.834;6.286;2023-04-04T13:39:22;100685.13;;;15.10
15144;BMP180;7672;50.834;6.286;2023-04-04T13:41:49;100683.41;;;15.13
15144;BMP180;7672;50.834;6.286;2023-04-04T13:44:17;100680.03;;;15.20
15144;BMP180;7672;50.834;6.286;2023-04-04T13:46:44;100679.22;;;15.30
15144;BMP180;7672;50.834;6.286;2023-04-04T13:49:11;100673.25;;;15.31
15144;BMP180;7672;50.834;6.286;2023-04-04T13:51:39;100665.63;;;15.28
15144;BMP180;7672;50.834;6.286;2023-04-04T13:54:06;100665.63;;;15.25
15144;BMP180;7672;50.834;6.286;2023-04-04T13:56:33;100661.38;;;15.26
15144;BMP180;7672;50.834;6.286;2023-04-04T13:59:01;100658.81;;;15.29
15144;BMP180;7672;50.834;6.286;2023-04-04T14:01:29;100661.38;;;15.33
15144;BMP180;7672;50.834;6.286;2023-04-04T14:03:56;100666.47;;;15.32
15144;BMP180;7672;50.834;6.286;2023-04-04T14:06:24;100657.13;;;15.28
15144;BMP180;7672;50.834;6.286;2023-04-04T14:08:52;100657.13;;;15.25
15144;BMP180;7672;50.834;6.286;2023-04-04T14:11:19;100651.13;;;15.20
15144;BMP180;7672;50.834;6.286;2023-04-04T14:13:47;100652.84;;;15.15
15144;BMP180;7672;50.834;6.286;2023-04-04T14:16:17;100646.91;;;15.05
15144;BMP180;7672;50.834;6.286;2023-04-04T14:18:45;100637.56;;;14.95
15144;BMP180;7672;50.834;6.286;2023-04-04T14:21:15;100640.09;;;14.91
15144;BMP180;7672;50.834;6.286;2023-04-04T14:23:42;100632.44;;;14.88
15144;BMP180;7672;50.834;6.286;2023-04-04T14:26:09;100630.75;;;14.84
15144;BMP180;7672;50.834;6.286;2023-04-04T14:28:37;100628.22;;;14.80
15144;BMP180;7672;50.834;6.286;2023-04-04T14:31:04;100625.63;;;14.78
15144;BMP180;7672;50.834;6.286;2023-04-04T14:33:33;100626.50;;;14.71
15144;BMP180;7672;50.834;6.286;2023-04-04T14:36:00;100614.56;;;14.64
15144;BMP180;7672;50.834;6.286;2023-04-04T14:38:29;100615.44;;;14.57
15144;BMP180;7672;50.834;6.286;2023-04-04T14:40:59;100612.03;;;14.52
15144;BMP180;7672;50.834;6.286;2023-04-04T14:43:26;100613.72;;;14.52
15144;BMP180;7672;50.834;6.286;2023-04-04T14:45:53;100612.03;;;14.57
15144;BMP180;7672;50.834;6.286;2023-04-04T14:48:21;100612.03;;;14.61
15144;BMP180;7672;50.834;6.286;2023-04-04T14:50:48;100606.13;;;14.62
15144;BMP180;7672;50.834;6.286;2023-04-04T14:53:16;100603.59;;;14.71
15144;BMP180;7672;50.834;6.286;2023-04-04T14:55:44;100608.66;;;14.73
15144;BMP180;7672;50.834;6.286;2023-04-04T14:58:11;100601.03;;;14.74
15144;BMP180;7672;50.834;6.286;2023-04-04T15:00:39;100602.72;;;14.77
15144;BMP180;7672;50.834;6.286;2023-04-04T15:03:06;100596.81;;;14.76
15144;BMP180;7672;50.834;6.286;2023-04-04T15:05:34;100590.88;;;14.77